sensor_id;sensor_type;location;lat;lon;timestamp;pressure;altitude;pressure_sealevel;temperature;humidity
40245;BME280;25963;42.694;23.600;2023-11-22T00:01:31;94511.44;;;7.70;100.00
40245;BME280;25963;42.694;23.600;2023-11-22T00:03:57;94520.56;;;7.86;100.00
40245;BME280;25963;42.694;23.600;2023-11-22T00:06:23;94529.16;;;7.99;100.00
40245;BME280;25963;42.694;23.600;2023-11-22T00:08:48;94524.13;;;8.16;100.00
40245;BME280;25963;42.694;23.600;2023-11-22T00:11:14;94518.84;;;8.16;100.00
40245;BME280;25963;42.694;23.600;2023-11-22T00:13:40;94536.66;;;8.39;100.00
40245;BME280;25963;42.694;23.600;2023-11-22T00:16:05;94499.03;;;8.20;100.00
40245;BME280;25963;42.694;23.600;2023-11-22T00:18:37;94519.44;;;8.18;100.00
40245;BME280;25963;42.694;23.600;2023-11-22T00:21:03;94503.84;;;8.23;100.00
40245;BME280;25963;42.694;23.600;2023-11-22T00:23:28;94521.84;;;8.45;100.00
40245;BME280;25963;42.694;23.600;2023-11-22T00:25:55;94505.75;;;8.35;100.00
40245;BME280;25963;42.694;23.600;2023-11-22T00:28:23;94508.91;;;8.43;100.00
40245;BME280;25963;42.694;23.600;2023-11-22T00:30:48;94495.09;;;8.48;100.00
40245;BME280;25963;42.694;23.600;2023-11-22T00:33:14;94491.31;;;8.44;100.00
40245;BME280;25963;42.694;23.600;2023-11-22T00:35:40;94482.59;;;8.25;100.00
40245;BME280;25963;42.694;23.600;2023-11-22T00:38:05;94486.28;;;8.42;100.00
40245;BME280;25963;42.694;23.600;2023-11-22T00:40:31;94479.78;;;8.45;100.00
40245;BME280;25963;42.694;23.600;2023-11-22T00:42:57;94494.38;;;8.59;100.00
40245;BME280;25963;42.694;23.600;2023-11-22T00:45:23;94491.44;;;8.67;100.00
40245;BME280;25963;42.694;23.600;2023-11-22T00:47:48;94488.53;;;8.57;100.00
40245;BME280;25963;42.694;23.600;2023-11-22T00:50:15;94489.38;;;8.69;100.00
40245;BME280;25963;42.694;23.600;2023-11-22T00:52:45;94479.47;;;8.72;100.00
40245;BME280;25963;42.694;23.600;2023-11-22T00:55:11;94476.56;;;8.91;100.00
40245;BME280;25963;42.694;23.600;2023-11-22T00:57:36;94448.25;;;8.75;100.00
40245;BME280;25963;42.694;23.600;2023-11-22T01:00:03;94461.25;;;9.00;100.00
40245;BME280;25963;42.694;23.600;2023-11-22T01:02:29;94471.13;;;8.75;100.00
40245;BME280;25963;42.694;23.600;2023-11-22T01:04:55;94479.31;;;8.66;100.00
40245;BME280;25963;42.694;23.600;2023-11-22T01:07:20;94485.16;;;8.68;100.00
40245;BME280;25963;42.694;23.600;2023-11-22T01:09:46;94476.31;;;8.63;100.00
40245;BME280;25963;42.694;23.600;2023-11-22T01:12:11;94483.63;;;8.61;100.00
40245;BME280;25963;42.694;23.600;2023-11-22T01:14:38;94476.69;;;8.97;100.00
40245;BME280;25963;42.694;23.600;2023-11-22T01:17:05;94449.06;;;8.76;100.00
40245;BME280;25963;42.694;23.600;2023-11-22T01:19:30;94438.41;;;8.71;100.00
40245;BME280;25963;42.694;23.600;2023-11-22T01:21:56;94444.06;;;8.86;100.00
40245;BME280;25963;42.694;23.600;2023-11-22T01:24:21;94435.28;;;8.62;100.00
40245;BME280;25963;42.694;23.600;2023-11-22T01:26:46;94462.25;;;8.87;100.00
40245;BME280;25963;42.694;23.600;2023-11-22T01:29:12;94431.84;;;8.91;100.00
40245;BME280;25963;42.694;23.600;2023-11-22T01:31:38;94430.13;;;8.97;100.00
40245;BME280;25963;42.694;23.600;2023-11-22T01:34:04;94424.69;;;9.10;100.00
40245;BME280;25963;42.694;23.600;2023-11-22T01:36:30;94421.75;;;8.77;100.00
40245;BME280;25963;42.694;23.600;2023-11-22T01:38:56;94427.13;;;8.82;100.00
40245;BME280;25963;42.694;23.600;2023-11-22T01:41:22;94414.75;;;8.71;100.00
40245;BME280;25963;42.694;23.600;2023-11-22T01:43:47;94417.50;;;8.76;100.00
40245;BME280;25963;42.694;23.600;2023-11-22T01:46:24;94415.00;;;8.81;100.00
40245;BME280;25963;42.694;23.600;2023-11-22T01:48:50;94411.84;;;8.60;100.00
40245;BME280;25963;42.694;23.600;2023-11-22T01:51:21;94408.84;;;8.87;100.00
40245;BME280;25963;42.694;23.600;2023-11-22T01:53:47;94425.16;;;9.07;100.00
40245;BME280;25963;42.694;23.600;2023-11-22T01:56:14;94408.41;;;8.90;100.00
40245;BME280;25963;42.694;23.600;2023-11-22T01:58:41;94406.44;;;8.85;100.00
40245;BME280;25963;42.694;23.600;2023-11-22T02:01:07;94404.53;;;9.04;100.00
40245;BME280;25963;42.694;23.600;2023-11-22T02:03:34;94410.72;;;8.98;100.00
40245;BME280;25963;42.694;23.600;2023-11-22T02:05:59;94399.28;;;9.04;100.00
40245;BME280;25963;42.694;23.600;2023-11-22T02:08:25;94411.78;;;9.21;100.00
40245;BME280;25963;42.694;23.600;2023-11-22T02:11:00;94411.44;;;9.29;100.00
40245;BME280;25963;42.694;23.600;2023-11-22T02:13:29;94393.34;;;9.09;100.00
40245;BME280;25963;42.694;23.600;2023-11-22T02:15:54;94376.88;;;9.13;100.00
40245;BME280;25963;42.694;23.600;2023-11-22T02:18:22;94403.56;;;9.41;100.00
40245;BME280;25963;42.694;23.600;2023-11-22T02:20:49;94407.09;;;9.34;100.00
40245;BME280;25963;42.694;23.600;2023-11-22T02:23:14;94388.44;;;9.12;100.00
40245;BME280;25963;42.694;23.600;2023-11-22T02:25:40;94404.69;;;9.33;100.00
40245;BME280;25963;42.694;23.600;2023-11-22T02:28:05;94417.28;;;9.19;100.00
40245;BME280;25963;42.694;23.600;2023-11-22T02:30:33;94394.38;;;9.08;100.00
40245;BME280;25963;42.694;23.600;2023-11-22T02:32:59;94399.88;;;9.06;100.00
40245;BME280;25963;42.694;23.600;2023-11-22T02:35:25;94425.03;;;9.14;100.00
40245;BME280;25963;42.694;23.600;2023-11-22T02:37:52;94388.47;;;8.82;100.00
40245;BME280;25963;42.694;23.600;2023-11-22T02:40:19;94388.56;;;8.76;100.00
40245;BME280;25963;42.694;23.600;2023-11-22T02:42:47;94408.50;;;8.83;100.00
40245;BME280;25963;42.694;23.600;2023-11-22T02:45:14;94391.53;;;8.67;100.00
40245;BME280;25963;42.694;23.600;2023-11-22T02:47:39;94416.34;;;8.72;100.00
40245;BME280;25963;42.694;23.600;2023-11-22T02:50:06;94394.41;;;8.78;100.00
40245;BME280;25963;42.694;23.600;2023-11-22T02:52:31;94423.47;;;8.83;100.00
40245;BME280;25963;42.694;23.600;2023-11-22T02:54:57;94409.13;;;8.67;100.00
40245;BME280;25963;42.694;23.600;2023-11-22T02:57:23;94417.41;;;8.82;100.00
40245;BME280;25963;42.694;23.600;2023-11-22T02:59:49;94433.75;;;8.84;100.00
40245;BME280;25963;42.694;23.600;2023-11-22T03:02:14;94404.66;;;8.56;100.00
40245;BME280;25963;42.694;23.600;2023-11-22T03:04:42;94425.78;;;8.61;100.00
40245;BME280;25963;42.694;23.600;2023-11-22T03:07:08;94402.00;;;8.56;100.00
40245;BME280;25963;42.694;23.600;2023-11-22T03:09:34;94439.88;;;8.66;100.00
40245;BME280;25963;42.694;23.600;2023-11-22T03:11:59;94427.31;;;8.68;100.00
40245;BME280;25963;42.694;23.600;2023-11-22T03:14:25;94433.22;;;8.64;100.00
40245;BME280;25963;42.694;23.600;2023-11-22T03:16:51;94427.84;;;8.59;100.00
40245;BME280;25963;42.694;23.600;2023-11-22T03:19:16;94419.97;;;8.59;100.00
40245;BME280;25963;42.694;23.600;2023-11-22T03:21:41;94433.47;;;8.62;100.00
40245;BME280;25963;42.694;23.600;2023-11-22T03:24:09;94412.09;;;8.40;100.00
40245;BME280;25963;42.694;23.600;2023-11-22T03:26:35;94407.06;;;8.39;100.00
40245;BME280;25963;42.694;23.600;2023-11-22T03:29:00;94426.31;;;8.51;100.00
40245;BME280;25963;42.694;23.600;2023-11-22T03:31:29;94424.53;;;8.63;100.00
40245;BME280;25963;42.694;23.600;2023-11-22T03:33:56;94416.06;;;8.50;100.00
40245;BME280;25963;42.694;23.600;2023-11-22T03:36:21;94422.44;;;8.54;100.00
40245;BME280;25963;42.694;23.600;2023-11-22T03:38:50;94414.25;;;8.62;100.00
40245;BME280;25963;42.694;23.600;2023-11-22T03:41:16;94427.81;;;8.47;100.00
40245;BME280;25963;42.694;23.600;2023-11-22T03:43:46;94414.91;;;8.57;100.00
40245;BME280;25963;42.694;23.600;2023-11-22T03:46:12;94422.16;;;8.62;100.00
40245;BME280;25963;42.694;23.600;2023-11-22T03:48:37;94413.13;;;8.69;100.00
40245;BME280;25963;42.694;23.600;2023-11-22T03:51:03;94425.03;;;8.72;100.00
40245;BME280;25963;42.694;23.600;2023-11-22T03:53:28;94454.41;;;8.99;100.00
40245;BME280;25963;42.694;23.600;2023-11-22T03:55:54;94423.84;;;8.38;100.00
40245;BME280;25963;42.694;23.600;2023-11-22T03:58:19;94438.53;;;8.76;100.00
40245;BME280;25963;42.694;23.600;2023-11-22T04:00:45;94426.06;;;8.71;100.00
40245;BME280;25963;42.694;23.600;2023-11-22T04:03:10;94436.50;;;8.78;100.00
40245;BME280;25963;42.694;23.600;2023-11-22T04:05:36;94433.19;;;8.52;100.00
40245;BME280;25963;42.694;23.600;2023-11-22T04:08:01;94442.53;;;8.48;100.00
40245;BME280;25963;42.694;23.600;2023-11-22T04:10:27;94421.66;;;8.16;100.00
40245;BME280;25963;42.694;23.600;2023-11-22T04:12:53;94434.16;;;8.21;100.00
40245;BME280;25963;42.694;23.600;2023-11-22T04:15:18;94435.44;;;8.30;100.00
40245;BME280;25963;42.694;23.600;2023-11-22T04:17:44;94431.38;;;8.16;100.00
40245;BME280;25963;42.694;23.600;2023-11-22T04:20:09;94449.97;;;8.33;100.00
40245;BME280;25963;42.694;23.600;2023-11-22T04:22:43;94425.25;;;7.85;100.00
40245;BME280;25963;42.694;23.600;2023-11-22T04:25:10;94449.63;;;8.48;100.00
40245;BME280;25963;42.694;23.600;2023-11-22T04:27:38;94439.25;;;8.53;100.00
40245;BME280;25963;42.694;23.600;2023-11-22T04:30:06;94412.03;;;8.29;100.00
40245;BME280;25963;42.694;23.600;2023-11-22T04:32:35;94437.94;;;8.62;100.00
40245;BME280;25963;42.694;23.600;2023-11-22T04:35:01;94438.28;;;8.65;100.00
40245;BME280;25963;42.694;23.600;2023-11-22T04:37:29;94436.25;;;8.67;100.00
40245;BME280;25963;42.694;23.600;2023-11-22T04:39:57;94458.13;;;8.80;100.00
40245;BME280;25963;42.694;23.600;2023-11-22T04:42:22;94463.81;;;8.77;100.00
40245;BME280;25963;42.694;23.600;2023-11-22T04:44:48;94489.75;;;9.03;100.00
40245;BME280;25963;42.694;23.600;2023-11-22T04:47:14;94469.34;;;8.87;100.00
40245;BME280;25963;42.694;23.600;2023-11-22T04:49:39;94479.91;;;8.99;100.00
40245;BME280;25963;42.694;23.600;2023-11-22T04:52:05;94476.69;;;8.97;100.00
40245;BME280;25963;42.694;23.600;2023-11-22T04:54:31;94503.63;;;9.10;100.00
40245;BME280;25963;42.694;23.600;2023-11-22T04:56:58;94479.81;;;8.75;100.00
40245;BME280;25963;42.694;23.600;2023-11-22T04:59:23;94495.59;;;8.75;100.00
40245;BME280;25963;42.694;23.600;2023-11-22T05:01:49;94501.09;;;8.74;100.00
40245;BME280;25963;42.694;23.600;2023-11-22T05:04:15;94481.22;;;8.59;100.00
40245;BME280;25963;42.694;23.600;2023-11-22T05:06:40;94479.03;;;8.56;100.00
40245;BME280;25963;42.694;23.600;2023-11-22T05:09:05;94504.88;;;8.78;100.00
40245;BME280;25963;42.694;23.600;2023-11-22T05:11:31;94514.59;;;9.07;100.00
40245;BME280;25963;42.694;23.600;2023-11-22T05:13:57;94504.63;;;8.98;100.00
40245;BME280;25963;42.694;23.600;2023-11-22T05:16:23;94528.41;;;9.03;100.00
40245;BME280;25963;42.694;23.600;2023-11-22T05:18:49;94509.19;;;9.02;100.00
40245;BME280;25963;42.694;23.600;2023-11-22T05:21:15;94546.75;;;9.09;100.00
40245;BME280;25963;42.694;23.600;2023-11-22T05:23:41;94522.44;;;8.96;100.00
40245;BME280;25963;42.694;23.600;2023-11-22T05:26:06;94530.53;;;8.94;100.00
40245;BME280;25963;42.694;23.600;2023-11-22T05:28:31;94556.38;;;9.16;100.00
40245;BME280;25963;42.694;23.600;2023-11-22T05:30:57;94542.34;;;9.03;100.00
40245;BME280;25963;42.694;23.600;2023-11-22T05:33:22;94551.78;;;9.11;100.00
40245;BME280;25963;42.694;23.600;2023-11-22T05:35:49;94544.28;;;8.96;100.00
40245;BME280;25963;42.694;23.600;2023-11-22T05:38:14;94546.31;;;8.94;100.00
40245;BME280;25963;42.694;23.600;2023-11-22T05:40:40;94549.91;;;9.00;100.00
40245;BME280;25963;42.694;23.600;2023-11-22T05:43:08;94561.38;;;9.05;100.00
40245;BME280;25963;42.694;23.600;2023-11-22T05:45:34;94560.88;;;8.97;100.00
40245;BME280;25963;42.694;23.600;2023-11-22T05:48:00;94580.47;;;9.01;100.00
40245;BME280;25963;42.694;23.600;2023-11-22T05:50:25;94555.91;;;8.70;100.00
40245;BME280;25963;42.694;23.600;2023-11-22T05:52:51;94576.81;;;8.65;100.00
40245;BME280;25963;42.694;23.600;2023-11-22T05:55:17;94571.25;;;8.73;100.00
40245;BME280;25963;42.694;23.600;2023-11-22T05:57:43;94573.31;;;8.71;100.00
40245;BME280;25963;42.694;23.600;2023-11-22T06:00:10;94586.22;;;8.73;100.00
40245;BME280;25963;42.694;23.600;2023-11-22T06:02:36;94580.69;;;8.62;100.00
40245;BME280;25963;42.694;23.600;2023-11-22T06:05:04;94617.34;;;8.76;100.00
40245;BME280;25963;42.694;23.600;2023-11-22T06:07:31;94598.75;;;8.77;100.00
40245;BME280;25963;42.694;23.600;2023-11-22T06:09:56;94619.25;;;8.68;100.00
40245;BME280;25963;42.694;23.600;2023-11-22T06:12:22;94609.59;;;8.44;100.00
40245;BME280;25963;42.694;23.600;2023-11-22T06:14:48;94601.97;;;8.36;100.00
40245;BME280;25963;42.694;23.600;2023-11-22T06:17:13;94618.28;;;8.44;100.00
40245;BME280;25963;42.694;23.600;2023-11-22T06:19:40;94627.16;;;8.43;100.00
40245;BME280;25963;42.694;23.600;2023-11-22T06:22:07;94625.88;;;8.28;100.00
40245;BME280;25963;42.694;23.600;2023-11-22T06:24:32;94628.88;;;8.31;100.00
40245;BME280;25963;42.694;23.600;2023-11-22T06:26:58;94615.78;;;8.24;100.00
40245;BME280;25963;42.694;23.600;2023-11-22T06:29:24;94631.66;;;8.36;100.00
40245;BME280;25963;42.694;23.600;2023-11-22T06:31:49;94633.50;;;8.36;100.00
40245;BME280;25963;42.694;23.600;2023-11-22T06:34:15;94645.03;;;8.35;100.00
40245;BME280;25963;42.694;23.600;2023-11-22T06:36:40;94649.22;;;8.42;100.00
40245;BME280;25963;42.694;23.600;2023-11-22T06:39:06;94641.81;;;8.33;100.00
40245;BME280;25963;42.694;23.600;2023-11-22T06:41:34;94629.84;;;8.37;100.00
40245;BME280;25963;42.694;23.600;2023-11-22T06:44:00;94646.25;;;8.57;100.00
40245;BME280;25963;42.694;23.600;2023-11-22T06:46:25;94632.81;;;8.47;100.00
40245;BME280;25963;42.694;23.600;2023-11-22T06:48:50;94649.91;;;8.56;100.00
40245;BME280;25963;42.694;23.600;2023-11-22T06:51:16;94649.06;;;8.62;100.00
40245;BME280;25963;42.694;23.600;2023-11-22T06:53:44;94633.03;;;8.64;100.00
40245;BME280;25963;42.694;23.600;2023-11-22T06:56:10;94635.63;;;8.71;100.00
40245;BME280;25963;42.694;23.600;2023-11-22T06:58:36;94664.56;;;8.89;100.00
40245;BME280;25963;42.694;23.600;2023-11-22T07:01:01;94632.31;;;8.75;100.00
40245;BME280;25963;42.694;23.600;2023-11-22T07:03:27;94667.72;;;8.98;100.00
40245;BME280;25963;42.694;23.600;2023-11-22T07:05:52;94638.69;;;8.86;100.00
40245;BME280;25963;42.694;23.600;2023-11-22T07:08:18;94673.97;;;9.15;100.00
40245;BME280;25963;42.694;23.600;2023-11-22T07:10:44;94666.31;;;9.13;100.00
40245;BME280;25963;42.694;23.600;2023-11-22T07:13:10;94669.16;;;9.12;100.00
40245;BME280;25963;42.694;23.600;2023-11-22T07:15:36;94676.41;;;9.17;100.00
40245;BME280;25963;42.694;23.600;2023-11-22T07:18:02;94668.00;;;9.08;100.00
40245;BME280;25963;42.694;23.600;2023-11-22T07:20:27;94679.75;;;9.24;100.00
40245;BME280;25963;42.694;23.600;2023-11-22T07:22:53;94671.72;;;9.19;100.00
40245;BME280;25963;42.694;23.600;2023-11-22T07:25:23;94695.97;;;9.39;100.00
40245;BME280;25963;42.694;23.600;2023-11-22T07:27:50;94670.84;;;9.25;100.00
40245;BME280;25963;42.694;23.600;2023-11-22T07:30:16;94685.16;;;9.29;100.00
40245;BME280;25963;42.694;23.600;2023-11-22T07:32:44;94700.00;;;9.42;100.00
40245;BME280;25963;42.694;23.600;2023-11-22T07:35:10;94682.31;;;9.30;100.00
40245;BME280;25963;42.694;23.600;2023-11-22T07:37:37;94692.19;;;9.17;100.00
40245;BME280;25963;42.694;23.600;2023-11-22T07:40:08;94693.50;;;9.26;100.00
40245;BME280;25963;42.694;23.600;2023-11-22T07:42:37;94710.41;;;9.36;100.00
40245;BME280;25963;42.694;23.600;2023-11-22T07:45:03;94700.31;;;9.33;100.00
40245;BME280;25963;42.694;23.600;2023-11-22T07:47:29;94701.09;;;9.34;100.00
40245;BME280;25963;42.694;23.600;2023-11-22T07:49:55;94698.97;;;9.43;100.00
40245;BME280;25963;42.694;23.600;2023-11-22T07:52:25;94701.47;;;9.37;100.00
40245;BME280;25963;42.694;23.600;2023-11-22T07:54:58;94708.56;;;9.37;100.00
40245;BME280;25963;42.694;23.600;2023-11-22T07:57:23;94709.44;;;9.31;100.00
40245;BME280;25963;42.694;23.600;2023-11-22T07:59:49;94695.84;;;9.16;100.00
40245;BME280;25963;42.694;23.600;2023-11-22T08:02:15;94697.53;;;9.10;100.00
40245;BME280;25963;42.694;23.600;2023-11-22T08:04:44;94704.22;;;9.24;100.00
40245;BME280;25963;42.694;23.600;2023-11-22T08:07:10;94706.94;;;9.36;100.00
40245;BME280;25963;42.694;23.600;2023-11-22T08:09:38;94708.69;;;9.42;100.00
40245;BME280;25963;42.694;23.600;2023-11-22T08:12:04;94715.34;;;9.45;100.00
40245;BME280;25963;42.694;23.600;2023-11-22T08:14:29;94725.38;;;9.54;100.00
40245;BME280;25963;42.694;23.600;2023-11-22T08:16:55;94732.50;;;9.66;100.00
40245;BME280;25963;42.694;23.600;2023-11-22T08:19:21;94689.97;;;9.50;100.00
40245;BME280;25963;42.694;23.600;2023-11-22T08:21:49;94698.50;;;9.64;100.00
40245;BME280;25963;42.694;23.600;2023-11-22T08:24:14;94710.03;;;9.81;100.00
40245;BME280;25963;42.694;23.600;2023-11-22T08:26:40;94729.69;;;9.97;100.00
40245;BME280;25963;42.694;23.600;2023-11-22T08:29:06;94727.78;;;9.86;100.00
40245;BME280;25963;42.694;23.600;2023-11-22T08:31:32;94724.16;;;9.87;100.00
40245;BME280;25963;42.694;23.600;2023-11-22T08:33:59;94726.34;;;9.90;100.00
40245;BME280;25963;42.694;23.600;2023-11-22T08:36:25;94710.34;;;9.73;100.00
40245;BME280;25963;42.694;23.600;2023-11-22T08:38:50;94733.91;;;9.98;100.00
40245;BME280;25963;42.694;23.600;2023-11-22T08:41:15;94735.56;;;10.11;100.00
40245;BME280;25963;42.694;23.600;2023-11-22T08:43:42;94719.19;;;10.09;100.00
40245;BME280;25963;42.694;23.600;2023-11-22T08:46:07;94738.66;;;10.20;100.00
40245;BME280;25963;42.694;23.600;2023-11-22T08:48:34;94741.72;;;10.05;100.00
40245;BME280;25963;42.694;23.600;2023-11-22T08:51:00;94730.38;;;10.04;100.00
40245;BME280;25963;42.694;23.600;2023-11-22T08:53:26;94760.78;;;10.19;100.00
40245;BME280;25963;42.694;23.600;2023-11-22T08:55:52;94724.41;;;9.97;100.00
40245;BME280;25963;42.694;23.600;2023-11-22T08:58:20;94744.03;;;10.13;100.00
40245;BME280;25963;42.694;23.600;2023-11-22T09:00:46;94728.97;;;10.20;100.00
40245;BME280;25963;42.694;23.600;2023-11-22T09:03:12;94758.56;;;10.34;100.00
40245;BME280;25963;42.694;23.600;2023-11-22T09:05:41;94745.13;;;10.24;100.00
40245;BME280;25963;42.694;23.600;2023-11-22T09:08:08;94741.50;;;10.37;100.00
40245;BME280;25963;42.694;23.600;2023-11-22T09:10:54;94724.31;;;10.46;100.00
40245;BME280;25963;42.694;23.600;2023-11-22T09:13:19;94736.28;;;10.60;100.00
40245;BME280;25963;42.694;23.600;2023-11-22T09:15:46;94735.56;;;10.11;100.00
40245;BME280;25963;42.694;23.600;2023-11-22T09:18:11;94741.66;;;10.54;100.00
40245;BME280;25963;42.694;23.600;2023-11-22T09:20:41;94743.78;;;10.33;100.00
40245;BME280;25963;42.694;23.600;2023-11-22T09:23:10;94755.19;;;10.15;100.00
40245;BME280;25963;42.694;23.600;2023-11-22T09:25:37;94735.47;;;10.18;100.00
40245;BME280;25963;42.694;23.600;2023-11-22T09:28:04;94756.78;;;10.46;100.00
40245;BME280;25963;42.694;23.600;2023-11-22T09:30:31;94746.25;;;10.58;100.00
40245;BME280;25963;42.694;23.600;2023-11-22T09:33:12;94736.94;;;10.44;100.00
40245;BME280;25963;42.694;23.600;2023-11-22T09:35:40;94752.66;;;10.50;100.00
40245;BME280;25963;42.694;23.600;2023-11-22T09:38:07;94731.53;;;10.39;100.00
40245;BME280;25963;42.694;23.600;2023-11-22T09:40:45;94730.31;;;10.41;100.00
40245;BME280;25963;42.694;23.600;2023-11-22T09:43:12;94740.88;;;10.53;100.00
40245;BME280;25963;42.694;23.600;2023-11-22T09:45:40;94764.50;;;10.71;100.00
40245;BME280;25963;42.694;23.600;2023-11-22T09:48:16;94758.91;;;10.68;100.00
40245;BME280;25963;42.694;23.600;2023-11-22T09:53:33;94778.19;;;10.80;100.00
40245;BME280;25963;42.694;23.600;2023-11-22T09:56:01;94777.47;;;10.73;100.00
40245;BME280;25963;42.694;23.600;2023-11-22T09:58:30;94760.97;;;10.78;100.00
40245;BME280;25963;42.694;23.600;2023-11-22T10:00:57;94773.25;;;10.84;100.00
40245;BME280;25963;42.694;23.600;2023-11-22T10:03:23;94738.22;;;10.77;100.00
40245;BME280;25963;42.694;23.600;2023-11-22T10:05:49;94744.09;;;10.90;100.00
40245;BME280;25963;42.694;23.600;2023-11-22T10:08:17;94746.88;;;11.07;100.00
40245;BME280;25963;42.694;23.600;2023-11-22T10:10:43;94750.06;;;11.21;100.00
40245;BME280;25963;42.694;23.600;2023-11-22T10:13:13;94742.38;;;11.31;100.00
40245;BME280;25963;42.694;23.600;2023-11-22T10:15:38;94747.75;;;11.36;100.00
40245;BME280;25963;42.694;23.600;2023-11-22T10:18:04;94764.81;;;11.57;100.00
40245;BME280;25963;42.694;23.600;2023-11-22T10:20:40;94753.44;;;11.57;100.00
40245;BME280;25963;42.694;23.600;2023-11-22T10:23:09;94739.25;;;11.46;100.00
40245;BME280;25963;42.694;23.600;2023-11-22T10:25:45;94745.13;;;11.88;100.00
40245;BME280;25963;42.694;23.600;2023-11-22T10:28:18;94729.97;;;11.72;100.00
40245;BME280;25963;42.694;23.600;2023-11-22T10:30:45;94747.06;;;11.93;100.00
40245;BME280;25963;42.694;23.600;2023-11-22T10:33:11;94749.94;;;11.92;99.42
40245;BME280;25963;42.694;23.600;2023-11-22T10:35:47;94738.34;;;11.93;100.00
40245;BME280;25963;42.694;23.600;2023-11-22T10:38:20;94711.75;;;11.99;99.81
40245;BME280;25963;42.694;23.600;2023-11-22T10:40:46;94733.53;;;12.18;100.00
40245;BME280;25963;42.694;23.600;2023-11-22T10:43:13;94746.84;;;12.40;100.00
40245;BME280;25963;42.694;23.600;2023-11-22T10:45:40;94757.63;;;12.50;98.94
40245;BME280;25963;42.694;23.600;2023-11-22T10:48:10;94729.22;;;12.46;96.86
40245;BME280;25963;42.694;23.600;2023-11-22T10:50:36;94736.31;;;12.57;96.48
40245;BME280;25963;42.694;23.600;2023-11-22T10:53:05;94751.38;;;12.73;96.01
40245;BME280;25963;42.694;23.600;2023-11-22T10:55:32;94738.78;;;12.64;93.91
40245;BME280;25963;42.694;23.600;2023-11-22T10:58:03;94750.66;;;12.78;94.08
40245;BME280;25963;42.694;23.600;2023-11-22T11:00:32;94747.22;;;12.77;93.73
40245;BME280;25963;42.694;23.600;2023-11-22T11:02:59;94751.06;;;12.87;93.33
40245;BME280;25963;42.694;23.600;2023-11-22T11:05:31;94760.09;;;12.74;90.66
40245;BME280;25963;42.694;23.600;2023-11-22T11:08:07;94764.53;;;12.85;91.37
40245;BME280;25963;42.694;23.600;2023-11-22T11:10:39;94756.38;;;12.87;92.08
40245;BME280;25963;42.694;23.600;2023-11-22T11:13:05;94758.09;;;12.98;93.00
40245;BME280;25963;42.694;23.600;2023-11-22T11:15:31;94763.78;;;13.07;90.52
40245;BME280;25963;42.694;23.600;2023-11-22T11:17:57;94750.16;;;12.98;87.63
40245;BME280;25963;42.694;23.600;2023-11-22T11:20:23;94740.22;;;13.05;90.54
40245;BME280;25963;42.694;23.600;2023-11-22T11:22:49;94746.97;;;12.96;88.27
40245;BME280;25963;42.694;23.600;2023-11-22T11:25:15;94739.19;;;12.72;87.54
40245;BME280;25963;42.694;23.600;2023-11-22T11:27:44;94747.19;;;12.94;87.01
40245;BME280;25963;42.694;23.600;2023-11-22T11:30:50;94764.75;;;13.17;87.07
40245;BME280;25963;42.694;23.600;2023-11-22T11:33:19;94760.81;;;13.20;87.33
40245;BME280;25963;42.694;23.600;2023-11-22T11:35:51;94743.91;;;12.70;88.41
40245;BME280;25963;42.694;23.600;2023-11-22T11:38:21;94747.06;;;12.84;89.44
40245;BME280;25963;42.694;23.600;2023-11-22T11:40:48;94727.25;;;12.87;90.22
40245;BME280;25963;42.694;23.600;2023-11-22T11:43:14;94736.44;;;13.01;87.85
40245;BME280;25963;42.694;23.600;2023-11-22T11:45:41;94743.66;;;13.22;90.32
40245;BME280;25963;42.694;23.600;2023-11-22T11:48:15;94732.19;;;13.17;90.72
40245;BME280;25963;42.694;23.600;2023-11-22T11:50:46;94717.09;;;13.00;88.81
40245;BME280;25963;42.694;23.600;2023-11-22T11:53:11;94730.50;;;13.11;92.15
40245;BME280;25963;42.694;23.600;2023-11-22T11:55:37;94740.84;;;13.12;91.72
40245;BME280;25963;42.694;23.600;2023-11-22T11:58:06;94749.53;;;13.08;91.12
40245;BME280;25963;42.694;23.600;2023-11-22T12:00:37;94764.53;;;13.02;91.67
40245;BME280;25963;42.694;23.600;2023-11-22T12:03:09;94756.00;;;13.17;89.84
40245;BME280;25963;42.694;23.600;2023-11-22T12:05:38;94768.03;;;13.24;94.18
40245;BME280;25963;42.694;23.600;2023-11-22T12:08:04;94752.38;;;13.40;91.51
40245;BME280;25963;42.694;23.600;2023-11-22T12:10:29;94756.47;;;13.47;92.33
40245;BME280;25963;42.694;23.600;2023-11-22T12:12:55;94759.34;;;13.46;91.44
40245;BME280;25963;42.694;23.600;2023-11-22T12:15:20;94763.13;;;13.50;90.56
40245;BME280;25963;42.694;23.600;2023-11-22T12:17:48;94766.34;;;13.52;90.38
40245;BME280;25963;42.694;23.600;2023-11-22T12:20:16;94755.03;;;13.40;89.77
40245;BME280;25963;42.694;23.600;2023-11-22T12:22:44;94760.84;;;13.59;92.20
40245;BME280;25963;42.694;23.600;2023-11-22T12:25:11;94759.78;;;13.60;92.80
40245;BME280;25963;42.694;23.600;2023-11-22T12:27:44;94779.22;;;13.65;91.06
40245;BME280;25963;42.694;23.600;2023-11-22T12:30:28;94786.00;;;13.39;89.74
40245;BME280;25963;42.694;23.600;2023-11-22T12:32:55;94786.41;;;13.48;90.67
40245;BME280;25963;42.694;23.600;2023-11-22T12:35:22;94779.50;;;13.47;93.14
40245;BME280;25963;42.694;23.600;2023-11-22T12:37:47;94790.69;;;13.49;91.04
40245;BME280;25963;42.694;23.600;2023-11-22T12:40:13;94773.56;;;13.40;91.90
40245;BME280;25963;42.694;23.600;2023-11-22T12:42:52;94794.34;;;13.48;88.81
40245;BME280;25963;42.694;23.600;2023-11-22T12:45:23;94787.38;;;13.42;90.62
40245;BME280;25963;42.694;23.600;2023-11-22T12:47:52;94795.72;;;13.51;90.00
40245;BME280;25963;42.694;23.600;2023-11-22T12:52:56;94788.34;;;13.53;89.72